createdAt,value
2019-03-24T00:00:30.766Z,10.90
2019-03-24T00:03:00.554Z,11.20
2019-03-24T00:05:29.491Z,10.80
2019-03-24T00:07:58.548Z,10.90
2019-03-24T00:10:28.494Z,10.80
2019-03-24T00:12:56.666Z,10.90
2019-03-24T00:15:26.659Z,10.80
2019-03-24T00:17:56.473Z,10.70
2019-03-24T00:20:25.059Z,10.70
2019-03-24T00:22:54.903Z,10.60
2019-03-24T00:25:24.510Z,10.60
2019-03-24T00:27:52.907Z,10.60
2019-03-24T00:30:21.875Z,10.50
2019-03-24T00:32:51.034Z,10.80
2019-03-24T00:35:20.393Z,10.70
2019-03-24T00:37:49.266Z,10.40
2019-03-24T00:40:19.999Z,10.50
2019-03-24T00:42:47.754Z,10.40
2019-03-24T00:45:16.757Z,10.30
2019-03-24T00:47:45.962Z,10.30
2019-03-24T00:50:13.662Z,10.30
2019-03-24T00:52:42.718Z,10.20
2019-03-24T00:55:11.520Z,10.50
2019-03-24T00:57:40.392Z,10.20
2019-03-24T01:00:10.454Z,10.10
2019-03-24T01:02:39.544Z,10.10
2019-03-24T01:05:09.033Z,10.00
2019-03-24T01:07:37.734Z,9.90
2019-03-24T01:10:07.548Z,9.90
2019-03-24T01:12:37.116Z,10.00
2019-03-24T01:15:07.303Z,9.90
2019-03-24T01:17:36.071Z,9.90
2019-03-24T01:20:04.107Z,9.90
2019-03-24T01:22:33.203Z,10.10
2019-03-24T01:25:02.089Z,9.90
2019-03-24T01:27:31.290Z,9.90
2019-03-24T01:30:00.493Z,10.40
2019-03-24T01:32:28.342Z,9.90
2019-03-24T01:34:57.434Z,9.90
2019-03-24T01:37:29.821Z,9.90
2019-03-24T01:39:58.932Z,9.80
2019-03-24T01:42:29.244Z,9.80
2019-03-24T01:44:57.315Z,10.20
2019-03-24T01:47:25.167Z,10.00
2019-03-24T01:49:54.787Z,9.90
2019-03-24T01:52:23.153Z,9.90
2019-03-24T01:54:52.362Z,9.70
2019-03-24T01:57:20.446Z,9.70
2019-03-24T01:59:49.489Z,9.80
2019-03-24T02:02:18.425Z,9.90
2019-03-24T02:04:47.562Z,9.60
2019-03-24T02:07:16.831Z,9.60
2019-03-24T02:09:46.528Z,9.60
2019-03-24T02:12:14.253Z,9.60
2019-03-24T02:14:43.023Z,9.70
2019-03-24T02:17:12.503Z,9.60
2019-03-24T02:19:41.118Z,9.70
2019-03-24T02:22:10.472Z,9.60
2019-03-24T02:24:40.037Z,9.70
2019-03-24T02:27:09.377Z,9.60
2019-03-24T02:29:38.630Z,10.10
2019-03-24T02:32:08.483Z,9.50
2019-03-24T02:34:36.953Z,9.60
2019-03-24T02:37:05.860Z,9.50
2019-03-24T02:39:34.741Z,9.50
2019-03-24T02:42:04.045Z,9.50
2019-03-24T02:44:32.922Z,9.50
2019-03-24T02:47:02.344Z,9.50
2019-03-24T02:49:31.380Z,9.40
2019-03-24T02:52:00.432Z,9.40
2019-03-24T02:54:29.820Z,9.30
2019-03-24T02:56:59.132Z,9.20
2019-03-24T02:59:28.245Z,9.50
2019-03-24T03:01:57.541Z,9.20
2019-03-24T03:04:26.335Z,9.10
2019-03-24T03:06:55.550Z,9.10
2019-03-24T03:09:24.445Z,9.00
2019-03-24T03:11:53.140Z,8.90
2019-03-24T03:14:22.307Z,9.10
2019-03-24T03:16:51.200Z,8.90
2019-03-24T03:19:20.495Z,8.90
2019-03-24T03:21:51.248Z,9.00
2019-03-24T03:24:19.824Z,8.90
2019-03-24T03:26:48.492Z,8.90
2019-03-24T03:29:16.318Z,9.20
2019-03-24T03:31:45.604Z,8.90
2019-03-24T03:34:14.111Z,9.20
2019-03-24T03:36:43.448Z,8.90
2019-03-24T03:39:12.944Z,9.30
2019-03-24T03:41:42.587Z,8.80
2019-03-24T03:44:11.492Z,8.80
2019-03-24T03:46:51.878Z,8.80
2019-03-24T03:49:11.887Z,8.80
2019-03-24T03:51:40.176Z,8.70
2019-03-24T03:54:09.251Z,8.80
2019-03-24T03:56:38.376Z,8.80
2019-03-24T03:59:07.586Z,8.60
2019-03-24T04:01:37.360Z,8.80
2019-03-24T04:04:05.102Z,8.70
2019-03-24T04:06:34.150Z,8.70
2019-03-24T04:09:05.336Z,8.40
2019-03-24T04:11:34.431Z,8.70
2019-03-24T04:14:02.814Z,8.60
2019-03-24T04:16:32.073Z,8.50
2019-03-24T04:19:00.036Z,8.30
2019-03-24T04:21:29.320Z,8.50
2019-03-24T04:23:58.936Z,8.50
2019-03-24T04:26:27.872Z,8.50
2019-03-24T04:28:57.315Z,8.40
2019-03-24T04:31:26.054Z,8.40
2019-03-24T04:33:55.728Z,8.40
2019-03-24T04:36:24.754Z,8.70
2019-03-24T04:38:53.635Z,8.40
2019-03-24T04:41:22.917Z,8.40
2019-03-24T04:43:52.616Z,8.40
2019-03-24T04:46:20.586Z,8.40
2019-03-24T04:48:49.887Z,8.40
2019-03-24T04:51:18.562Z,8.50
2019-03-24T04:53:46.838Z,8.40
2019-03-24T04:56:15.789Z,8.30
2019-03-24T04:58:45.050Z,8.20
2019-03-24T05:01:13.511Z,8.20
2019-03-24T05:03:42.511Z,8.30
2019-03-24T05:06:15.724Z,8.30
2019-03-24T05:08:44.804Z,8.20
2019-03-24T05:11:13.285Z,8.30
2019-03-24T05:13:41.763Z,8.30
2019-03-24T05:16:09.945Z,8.30
2019-03-24T05:18:39.181Z,8.30
2019-03-24T05:21:06.946Z,8.30
2019-03-24T05:23:36.545Z,8.20
2019-03-24T05:26:05.342Z,8.30
2019-03-24T05:28:35.259Z,8.20
2019-03-24T05:31:04.515Z,8.10
2019-03-24T05:33:33.597Z,8.60
2019-03-24T05:36:02.314Z,8.10
2019-03-24T05:38:31.747Z,8.40
2019-03-24T05:41:00.995Z,8.20
2019-03-24T05:43:30.302Z,8.10
2019-03-24T05:45:59.403Z,8.10
2019-03-24T05:48:32.578Z,8.40
2019-03-24T05:51:04.595Z,8.10
2019-03-24T05:53:33.305Z,8.10
2019-03-24T05:56:01.829Z,8.20
2019-03-24T05:58:30.007Z,8.10
2019-03-24T06:00:58.258Z,8.10
2019-03-24T06:03:26.253Z,8.10
2019-03-24T06:05:54.217Z,8.50
2019-03-24T06:08:22.373Z,8.10
2019-03-24T06:10:51.685Z,8.00
2019-03-24T06:13:21.021Z,8.60
2019-03-24T06:15:50.283Z,8.00
2019-03-24T06:18:19.090Z,7.90
2019-03-24T06:20:47.567Z,7.90
2019-03-24T06:23:16.055Z,7.90
2019-03-24T06:25:44.674Z,7.90
2019-03-24T06:28:13.375Z,7.90
2019-03-24T06:30:42.063Z,7.80
2019-03-24T06:33:10.735Z,7.80
2019-03-24T06:35:39.337Z,7.90
2019-03-24T06:38:08.158Z,7.90
2019-03-24T06:40:36.732Z,7.80
2019-03-24T06:43:05.318Z,7.70
2019-03-24T06:45:33.908Z,7.70
2019-03-24T06:48:02.565Z,7.80
2019-03-24T06:50:31.542Z,7.80
2019-03-24T06:52:59.022Z,7.70
2019-03-24T06:55:27.662Z,7.80
2019-03-24T06:57:56.813Z,7.90
2019-03-24T07:00:25.518Z,7.80
2019-03-24T07:02:54.799Z,7.80
2019-03-24T07:05:23.710Z,7.80
2019-03-24T07:07:52.978Z,7.80
2019-03-24T07:10:21.008Z,7.80
2019-03-24T07:12:51.478Z,8.00
2019-03-24T07:15:20.318Z,7.80
2019-03-24T07:17:49.595Z,7.80
2019-03-24T07:20:18.490Z,7.90
2019-03-24T07:22:47.661Z,8.00
2019-03-24T07:25:16.272Z,8.00
2019-03-24T07:27:45.353Z,8.00
2019-03-24T07:30:14.222Z,8.00
2019-03-24T07:32:43.316Z,8.10
2019-03-24T07:35:12.839Z,8.50
2019-03-24T07:37:42.549Z,8.30
2019-03-24T07:40:13.214Z,8.30
2019-03-24T07:42:41.560Z,8.40
2019-03-24T07:45:09.345Z,8.50
2019-03-24T07:47:38.266Z,8.40
2019-03-24T07:50:08.035Z,8.70
2019-03-24T07:52:36.747Z,9.00
2019-03-24T07:55:06.358Z,9.00
2019-03-24T07:57:35.722Z,9.10
2019-03-24T08:00:06.761Z,9.20
2019-03-24T08:02:36.383Z,9.80
2019-03-24T08:05:04.642Z,9.50
2019-03-24T08:07:33.665Z,9.60
2019-03-24T08:10:03.043Z,9.80
2019-03-24T08:12:31.082Z,10.40
2019-03-24T08:15:00.517Z,10.40
2019-03-24T08:17:30.131Z,10.80
2019-03-24T08:20:00.683Z,11.10
2019-03-24T08:22:29.955Z,11.50
2019-03-24T08:24:58.236Z,12.20
2019-03-24T08:27:26.825Z,13.20
2019-03-24T08:29:56.014Z,14.60
2019-03-24T08:32:25.760Z,15.90
2019-03-24T08:34:54.078Z,16.60
2019-03-24T08:37:23.143Z,16.10
2019-03-24T08:39:52.324Z,15.10
2019-03-24T08:42:20.357Z,14.20
2019-03-24T08:44:49.932Z,13.60
2019-03-24T08:47:18.748Z,13.40
2019-03-24T08:49:46.403Z,13.20
2019-03-24T08:52:15.208Z,13.00
2019-03-24T08:54:45.394Z,12.70
2019-03-24T08:57:13.098Z,12.50
2019-03-24T08:59:42.597Z,12.40
2019-03-24T09:02:10.099Z,12.10
2019-03-24T09:04:38.690Z,11.60
2019-03-24T09:07:08.283Z,12.00
2019-03-24T09:09:35.983Z,11.90
2019-03-24T09:12:04.821Z,11.90
2019-03-24T09:14:33.429Z,11.90
2019-03-24T09:17:02.118Z,11.90
2019-03-24T09:19:30.978Z,11.90
2019-03-24T09:21:59.598Z,12.00
2019-03-24T09:24:28.271Z,11.90
2019-03-24T09:26:56.991Z,11.90
2019-03-24T09:29:25.598Z,11.70
2019-03-24T09:31:54.299Z,11.60
2019-03-24T09:34:22.978Z,11.70
2019-03-24T09:36:51.875Z,11.80
2019-03-24T09:39:20.481Z,11.90
2019-03-24T09:41:49.205Z,12.20
2019-03-24T09:44:18.729Z,11.70
2019-03-24T09:46:48.381Z,11.70
2019-03-24T09:49:20.583Z,11.80
2019-03-24T09:51:49.311Z,11.80
2019-03-24T09:54:17.777Z,11.80
2019-03-24T09:56:45.764Z,11.70
2019-03-24T09:59:13.393Z,11.80
2019-03-24T10:01:42.429Z,11.80
2019-03-24T10:04:11.555Z,11.80
2019-03-24T10:06:40.403Z,11.90
2019-03-24T10:09:09.608Z,12.00
2019-03-24T10:11:38.431Z,12.00
2019-03-24T10:14:07.289Z,12.00
2019-03-24T10:16:38.671Z,12.00
2019-03-24T10:19:13.832Z,12.20
2019-03-24T10:21:38.075Z,12.20
2019-03-24T10:24:07.884Z,12.30
2019-03-24T10:26:35.663Z,12.30
2019-03-24T10:29:03.365Z,12.50
2019-03-24T10:31:30.965Z,12.90
2019-03-24T10:33:59.474Z,12.60
2019-03-24T10:36:28.163Z,12.60
2019-03-24T10:38:56.892Z,12.40
2019-03-24T10:41:25.428Z,12.60
2019-03-24T10:43:54.008Z,12.50
2019-03-24T10:46:22.725Z,12.40
2019-03-24T10:48:51.446Z,12.80
2019-03-24T10:51:20.044Z,12.80
2019-03-24T10:53:50.552Z,12.90
2019-03-24T10:56:18.150Z,12.80
2019-03-24T10:58:45.862Z,13.00
2019-03-24T11:01:14.618Z,13.00
2019-03-24T11:03:43.639Z,13.10
2019-03-24T11:06:12.644Z,13.30
2019-03-24T11:08:41.351Z,13.90
2019-03-24T11:11:10.070Z,13.50
2019-03-24T11:13:38.677Z,13.30
2019-03-24T11:16:07.614Z,13.40
2019-03-24T11:18:36.804Z,13.70
2019-03-24T11:21:04.521Z,13.50
2019-03-24T11:23:33.150Z,13.70
2019-03-24T11:26:01.755Z,13.50
2019-03-24T11:28:33.807Z,13.90
2019-03-24T11:31:03.101Z,13.90
2019-03-24T11:33:30.684Z,13.80
2019-03-24T11:35:58.390Z,13.90
2019-03-24T11:38:27.311Z,13.90
2019-03-24T11:40:56.015Z,14.00
2019-03-24T11:43:24.637Z,14.00
2019-03-24T11:45:53.439Z,14.20
2019-03-24T11:48:23.333Z,14.10
2019-03-24T11:50:50.876Z,14.30
2019-03-24T11:53:24.515Z,14.00
2019-03-24T11:55:53.238Z,14.30
2019-03-24T11:58:20.955Z,14.20
2019-03-24T12:00:49.023Z,14.20
2019-03-24T12:03:25.493Z,13.90
2019-03-24T12:05:53.564Z,13.80
2019-03-24T12:08:21.284Z,13.80
2019-03-24T12:10:48.992Z,13.80
2019-03-24T12:13:16.611Z,13.90
2019-03-24T12:15:44.373Z,13.90
2019-03-24T12:18:22.196Z,14.30
2019-03-24T12:20:50.067Z,13.90
2019-03-24T12:23:17.809Z,14.10
2019-03-24T12:25:45.541Z,14.10
2019-03-24T12:28:13.337Z,14.20
2019-03-24T12:30:41.472Z,14.30
2019-03-24T12:33:09.094Z,14.40
2019-03-24T12:35:36.670Z,14.40
2019-03-24T12:38:04.515Z,14.30
2019-03-24T12:40:32.628Z,14.40
2019-03-24T12:43:00.375Z,14.30
2019-03-24T12:45:28.061Z,14.30
2019-03-24T12:47:55.701Z,14.10
2019-03-24T12:50:31.501Z,14.10
2019-03-24T12:52:55.735Z,14.10
2019-03-24T12:55:23.326Z,14.30
2019-03-24T12:57:50.963Z,14.30
2019-03-24T13:00:39.624Z,14.10
2019-03-24T13:03:08.251Z,14.30
2019-03-24T13:05:36.241Z,14.50
2019-03-24T13:08:14.650Z,14.50
2019-03-24T13:10:42.988Z,14.40
2019-03-24T13:13:11.046Z,14.40
2019-03-24T13:15:38.914Z,14.10
2019-03-24T13:18:08.113Z,14.70
2019-03-24T13:20:38.682Z,14.20
2019-03-24T13:23:08.082Z,14.30
2019-03-24T13:25:37.176Z,14.10
2019-03-24T13:28:06.187Z,13.80
2019-03-24T13:30:35.155Z,13.60
2019-03-24T13:33:04.210Z,13.80
2019-03-24T13:35:33.559Z,13.70
2019-03-24T13:38:04.205Z,13.70
2019-03-24T13:40:33.377Z,13.80
2019-03-24T13:43:02.278Z,13.80
2019-03-24T13:45:31.679Z,13.60
2019-03-24T13:48:00.769Z,14.00
2019-03-24T13:50:31.682Z,13.70
2019-03-24T13:53:00.828Z,13.80
2019-03-24T13:55:30.263Z,13.60
2019-03-24T13:57:59.727Z,13.70
2019-03-24T14:00:28.457Z,13.70
2019-03-24T14:02:58.578Z,13.60
2019-03-24T14:05:27.637Z,13.60
2019-03-24T14:07:57.322Z,13.60
2019-03-24T14:10:35.193Z,13.70
2019-03-24T14:13:03.146Z,13.90
2019-03-24T14:15:31.848Z,13.70
2019-03-24T14:18:00.847Z,13.70
2019-03-24T14:20:43.440Z,13.70
2019-03-24T14:23:06.134Z,13.70
2019-03-24T14:25:35.242Z,13.70
2019-03-24T14:28:04.324Z,13.90
2019-03-24T14:30:43.938Z,13.70
2019-03-24T14:33:14.108Z,13.80
2019-03-24T14:35:42.167Z,14.10
2019-03-24T14:38:14.391Z,13.80
2019-03-24T14:40:42.299Z,13.60
2019-03-24T14:43:10.778Z,13.80
2019-03-24T14:45:40.022Z,13.60
2019-03-24T14:48:09.082Z,13.90
2019-03-24T14:50:39.426Z,13.60
2019-03-24T14:53:07.778Z,13.60
2019-03-24T14:55:36.575Z,13.50
2019-03-24T14:58:05.778Z,13.60
2019-03-24T15:00:38.219Z,13.50
2019-03-24T15:03:07.395Z,13.40
2019-03-24T15:05:36.533Z,13.30
2019-03-24T15:08:08.602Z,13.40
2019-03-24T15:10:39.224Z,13.40
2019-03-24T15:13:07.315Z,13.50
2019-03-24T15:15:35.570Z,13.50
2019-03-24T15:18:03.574Z,13.50
2019-03-24T15:20:33.124Z,13.50
2019-03-24T15:23:02.521Z,13.50
2019-03-24T15:25:30.177Z,13.50
2019-03-24T15:27:59.125Z,13.40
2019-03-24T15:30:27.831Z,13.40
2019-03-24T15:32:56.701Z,13.40
2019-03-24T15:35:28.893Z,13.50
2019-03-24T15:38:07.758Z,13.40
2019-03-24T15:40:26.715Z,13.60
2019-03-24T15:42:56.055Z,13.30
2019-03-24T15:45:26.648Z,13.30
2019-03-24T15:47:55.989Z,13.70
2019-03-24T15:50:23.953Z,13.30
2019-03-24T15:52:52.001Z,13.40
2019-03-24T15:55:20.618Z,13.50
2019-03-24T15:57:54.157Z,13.70
2019-03-24T16:00:40.625Z,13.50
2019-03-24T16:03:10.142Z,13.40
2019-03-24T16:05:38.087Z,13.20
2019-03-24T16:08:07.390Z,13.30
2019-03-24T16:10:35.596Z,13.30
2019-03-24T16:13:03.731Z,13.60
2019-03-24T16:15:37.648Z,13.30
2019-03-24T16:18:05.753Z,13.30
2019-03-24T16:20:34.515Z,13.30
2019-03-24T16:23:02.253Z,13.30
2019-03-24T16:25:33.657Z,13.30
2019-03-24T16:28:02.216Z,13.20
2019-03-24T16:30:29.726Z,13.10
2019-03-24T16:32:59.247Z,12.90
2019-03-24T16:35:28.317Z,12.90
2019-03-24T16:37:58.084Z,12.90
2019-03-24T16:40:26.557Z,12.90
2019-03-24T16:42:54.279Z,12.90
2019-03-24T16:45:23.211Z,12.80
2019-03-24T16:47:52.586Z,12.70
2019-03-24T16:50:22.326Z,12.70
2019-03-24T16:52:51.252Z,12.50
2019-03-24T16:55:20.727Z,12.60
2019-03-24T16:57:49.953Z,12.40
2019-03-24T17:00:22.098Z,12.40
2019-03-24T17:02:50.154Z,12.30
2019-03-24T17:05:18.538Z,12.30
2019-03-24T17:07:46.648Z,12.50
2019-03-24T17:10:14.675Z,12.00
2019-03-24T17:12:47.787Z,12.00
2019-03-24T17:15:15.845Z,12.00
2019-03-24T17:17:44.131Z,12.10
2019-03-24T17:20:12.396Z,12.10
2019-03-24T17:22:40.267Z,12.10
2019-03-24T17:25:13.807Z,12.40
2019-03-24T17:27:42.589Z,11.90
2019-03-24T17:30:11.851Z,11.90
2019-03-24T17:32:40.850Z,11.80
2019-03-24T17:35:14.822Z,11.70
2019-03-24T17:37:42.645Z,11.60
2019-03-24T17:40:12.457Z,11.70
2019-03-24T17:42:41.059Z,11.60
2019-03-24T17:45:10.857Z,11.90
2019-03-24T17:47:42.492Z,11.50
2019-03-24T17:50:12.085Z,11.40
2019-03-24T17:52:41.504Z,11.30
2019-03-24T17:55:10.913Z,11.30
2019-03-24T17:57:47.798Z,11.20
2019-03-24T18:00:21.692Z,11.20
2019-03-24T18:02:49.982Z,11.30
2019-03-24T18:05:17.861Z,11.60
2019-03-24T18:07:45.818Z,11.30
2019-03-24T18:10:14.390Z,11.30
2019-03-24T18:12:42.881Z,11.10
2019-03-24T18:15:11.158Z,11.00
2019-03-24T18:17:40.142Z,11.10
2019-03-24T18:20:17.536Z,11.30
2019-03-24T18:22:45.694Z,10.90
2019-03-24T18:25:13.786Z,11.00
2019-03-24T18:27:41.551Z,10.90
2019-03-24T18:30:11.059Z,11.00
2019-03-24T18:32:38.759Z,10.90
2019-03-24T18:35:08.776Z,10.90
2019-03-24T18:37:37.826Z,10.90
2019-03-24T18:40:08.111Z,10.90
2019-03-24T18:42:36.427Z,10.80
2019-03-24T18:45:11.805Z,10.80
2019-03-24T18:47:39.914Z,10.70
2019-03-24T18:50:08.114Z,10.70
2019-03-24T18:52:36.391Z,10.60
2019-03-24T18:55:04.665Z,10.50
2019-03-24T18:57:32.406Z,10.70
2019-03-24T19:00:01.778Z,10.50
2019-03-24T19:02:30.594Z,10.40
2019-03-24T19:04:59.621Z,10.30
2019-03-24T19:07:28.561Z,10.70
2019-03-24T19:09:57.674Z,10.20
2019-03-24T19:12:28.064Z,10.50
2019-03-24T19:14:56.988Z,10.10
2019-03-24T19:17:25.965Z,10.10
2019-03-24T19:19:54.915Z,10.00
2019-03-24T19:22:33.329Z,10.00
2019-03-24T19:24:55.476Z,10.00
2019-03-24T19:27:24.350Z,10.00
2019-03-24T19:29:53.221Z,10.00
2019-03-24T19:32:22.071Z,9.90
2019-03-24T19:34:50.751Z,9.90
2019-03-24T19:37:20.045Z,9.80
2019-03-24T19:39:49.126Z,10.10
2019-03-24T19:42:18.026Z,9.70
2019-03-24T19:44:47.558Z,9.60
2019-03-24T19:47:17.586Z,9.60
2019-03-24T19:49:46.521Z,9.50
2019-03-24T19:52:15.465Z,9.50
2019-03-24T19:54:44.414Z,9.40
2019-03-24T19:57:13.300Z,9.30
2019-03-24T19:59:43.826Z,9.30
2019-03-24T20:02:12.522Z,9.30
2019-03-24T20:04:41.375Z,9.30
2019-03-24T20:07:10.679Z,9.30
2019-03-24T20:09:43.412Z,9.50
2019-03-24T20:12:12.334Z,9.20
2019-03-24T20:14:41.877Z,9.20
2019-03-24T20:17:10.371Z,9.20
2019-03-24T20:19:43.901Z,9.20
2019-03-24T20:22:13.373Z,9.10
2019-03-24T20:24:42.273Z,9.00
2019-03-24T20:27:11.572Z,8.90
2019-03-24T20:29:40.411Z,9.20
2019-03-24T20:32:12.221Z,9.00
2019-03-24T20:34:41.213Z,9.00
2019-03-24T20:37:09.079Z,8.90
2019-03-24T20:39:37.215Z,8.90
2019-03-24T20:42:10.859Z,8.90
2019-03-24T20:44:39.206Z,8.80
2019-03-24T20:47:06.839Z,8.90
2019-03-24T20:49:34.328Z,8.90
2019-03-24T20:52:02.199Z,8.90
2019-03-24T20:54:33.989Z,8.90
2019-03-24T20:57:02.058Z,8.90
2019-03-24T20:59:29.663Z,8.80
2019-03-24T21:01:57.364Z,8.80
2019-03-24T21:04:25.958Z,8.80
2019-03-24T21:06:55.166Z,8.60
2019-03-24T21:09:26.886Z,8.50
2019-03-24T21:11:56.928Z,8.40
2019-03-24T21:14:25.611Z,8.40
2019-03-24T21:16:54.458Z,8.40
2019-03-24T21:19:24.119Z,8.30
2019-03-24T21:21:53.736Z,8.20
2019-03-24T21:24:21.487Z,8.20
2019-03-24T21:26:50.173Z,8.20
2019-03-24T21:29:18.789Z,8.20
2019-03-24T21:31:47.548Z,8.30
2019-03-24T21:34:18.714Z,8.50
2019-03-24T21:36:47.447Z,8.20
2019-03-24T21:39:16.325Z,8.20
2019-03-24T21:41:45.079Z,8.20
2019-03-24T21:44:13.887Z,8.50
2019-03-24T21:46:47.082Z,8.20
2019-03-24T21:49:14.619Z,8.10
2019-03-24T21:51:43.306Z,8.10
2019-03-24T21:54:12.292Z,8.20
2019-03-24T21:56:41.587Z,8.10
2019-03-24T21:59:13.248Z,8.10
2019-03-24T22:01:42.156Z,8.00
2019-03-24T22:04:11.581Z,8.00
2019-03-24T22:06:40.640Z,7.70
2019-03-24T22:09:15.369Z,7.80
2019-03-24T22:11:43.099Z,7.90
2019-03-24T22:14:11.974Z,7.70
2019-03-24T22:16:41.747Z,7.80
2019-03-24T22:19:15.647Z,7.70
2019-03-24T22:21:43.607Z,7.80
2019-03-24T22:24:11.882Z,8.40
2019-03-24T22:26:40.855Z,7.70
2019-03-24T22:29:10.188Z,7.70
2019-03-24T22:31:39.176Z,7.70
2019-03-24T22:34:08.833Z,8.10
2019-03-24T22:36:36.566Z,7.70
2019-03-24T22:39:06.459Z,8.00
2019-03-24T22:41:35.663Z,7.70
2019-03-24T22:44:04.716Z,7.60
2019-03-24T22:46:33.747Z,7.60
2019-03-24T22:49:02.947Z,7.60
2019-03-24T22:51:31.910Z,7.50
2019-03-24T22:54:03.472Z,7.80
2019-03-24T22:56:32.100Z,7.60
2019-03-24T22:59:00.822Z,7.60
2019-03-24T23:01:29.774Z,7.60
2019-03-24T23:03:59.022Z,7.60
2019-03-24T23:06:28.499Z,7.40
2019-03-24T23:08:56.577Z,7.40
2019-03-24T23:11:25.836Z,7.50
2019-03-24T23:13:54.219Z,7.40
2019-03-24T23:16:23.303Z,7.30
2019-03-24T23:18:51.886Z,7.30
2019-03-24T23:21:20.935Z,7.30
2019-03-24T23:23:49.874Z,7.30
2019-03-24T23:26:18.888Z,7.20
2019-03-24T23:28:47.985Z,7.30
2019-03-24T23:31:17.070Z,7.20
2019-03-24T23:33:46.738Z,7.30
2019-03-24T23:36:14.694Z,7.20
2019-03-24T23:38:43.994Z,7.20
2019-03-24T23:41:12.698Z,7.20
2019-03-24T23:43:41.431Z,7.20
2019-03-24T23:46:10.546Z,7.00
2019-03-24T23:48:39.622Z,6.90
2019-03-24T23:51:08.503Z,7.00
2019-03-24T23:53:37.362Z,7.30
2019-03-24T23:56:06.997Z,7.10
2019-03-24T23:58:40.819Z,7.00
